createdAt,value
2023-05-09T00:04:01.450Z,65.55
2023-05-09T00:06:29.589Z,65.59
2023-05-09T00:08:58.372Z,65.63
2023-05-09T00:11:26.993Z,65.62
2023-05-09T00:13:55.131Z,65.79
2023-05-09T00:16:23.874Z,65.81
2023-05-09T00:18:52.240Z,65.73
2023-05-09T00:21:20.380Z,65.80
2023-05-09T00:23:48.616Z,65.67
2023-05-09T00:26:17.384Z,65.61
2023-05-09T00:28:46.430Z,65.65
2023-05-09T00:31:15.025Z,65.68
2023-05-09T00:33:43.520Z,65.71
2023-05-09T00:36:11.803Z,65.64
2023-05-09T00:38:39.960Z,65.80
2023-05-09T00:41:08.286Z,65.98
2023-05-09T00:43:36.481Z,66.14
2023-05-09T00:46:04.880Z,66.31
2023-05-09T00:48:33.436Z,66.52
2023-05-09T00:51:01.549Z,66.69
2023-05-09T00:53:29.787Z,66.91
2023-05-09T00:56:00.316Z,67.10
2023-05-09T00:58:29.307Z,67.24
2023-05-09T01:00:57.462Z,67.47
2023-05-09T01:03:25.896Z,67.54
2023-05-09T01:06:07.567Z,67.74
2023-05-09T01:08:51.505Z,67.89
2023-05-09T01:11:36.519Z,68.13
2023-05-09T01:14:25.993Z,68.16
2023-05-09T01:16:59.610Z,68.29
2023-05-09T01:19:52.556Z,68.37
2023-05-09T01:22:27.053Z,68.55
2023-05-09T01:25:20.434Z,68.55
2023-05-09T01:27:59.865Z,68.66
2023-05-09T01:30:30.993Z,68.76
2023-05-09T01:33:06.642Z,68.82
2023-05-09T01:35:38.054Z,68.97
2023-05-09T01:38:12.428Z,68.99
2023-05-09T01:40:42.826Z,69.06
2023-05-09T01:43:12.839Z,69.04
2023-05-09T01:45:43.614Z,69.11
2023-05-09T01:48:13.548Z,69.22
2023-05-09T01:50:44.719Z,69.25
2023-05-09T01:53:14.054Z,69.30
2023-05-09T01:55:43.691Z,69.33
2023-05-09T01:58:12.744Z,69.36
2023-05-09T02:00:42.486Z,69.39
2023-05-09T02:03:11.327Z,69.51
2023-05-09T02:05:40.485Z,69.59
2023-05-09T02:08:09.808Z,69.58
2023-05-09T02:10:38.338Z,69.68
2023-05-09T02:13:06.969Z,69.82
2023-05-09T02:15:35.161Z,70.00
2023-05-09T02:18:03.428Z,70.03
2023-05-09T02:20:32.152Z,70.07
2023-05-09T02:23:00.217Z,70.27
2023-05-09T02:25:29.151Z,70.22
2023-05-09T02:27:58.908Z,70.29
2023-05-09T02:30:31.363Z,70.38
2023-05-09T02:33:07.712Z,70.48
2023-05-09T02:35:36.980Z,70.40
2023-05-09T02:38:05.524Z,70.37
2023-05-09T02:40:34.826Z,70.38
2023-05-09T02:43:03.425Z,70.22
2023-05-09T02:45:31.784Z,70.21
2023-05-09T02:48:00.662Z,70.08
2023-05-09T02:50:29.016Z,69.97
2023-05-09T02:52:57.092Z,70.05
2023-05-09T02:55:25.981Z,69.94
2023-05-09T02:58:01.916Z,69.76
2023-05-09T03:00:38.406Z,69.66
2023-05-09T03:03:06.713Z,69.59
2023-05-09T03:05:35.264Z,69.39
2023-05-09T03:08:03.672Z,69.37
2023-05-09T03:10:31.738Z,69.26
2023-05-09T03:12:59.969Z,69.22
2023-05-09T03:15:28.288Z,69.13
2023-05-09T03:17:56.373Z,69.09
2023-05-09T03:20:26.220Z,69.07
2023-05-09T03:22:54.570Z,68.90
2023-05-09T03:25:22.807Z,68.87
2023-05-09T03:27:51.520Z,68.79
2023-05-09T03:30:19.967Z,68.60
2023-05-09T03:32:48.439Z,68.62
2023-05-09T03:35:16.904Z,68.70
2023-05-09T03:37:45.193Z,68.65
2023-05-09T03:40:13.448Z,68.60
2023-05-09T03:42:41.502Z,68.57
2023-05-09T03:45:11.344Z,68.43
2023-05-09T03:47:39.618Z,68.19
2023-05-09T03:50:08.406Z,68.27
2023-05-09T03:52:36.514Z,68.13
2023-05-09T03:55:05.039Z,67.98
2023-05-09T03:57:34.737Z,67.88
2023-05-09T04:00:04.931Z,67.91
2023-05-09T04:02:34.489Z,67.77
2023-05-09T04:05:02.761Z,67.51
2023-05-09T04:07:31.073Z,67.48
2023-05-09T04:09:59.842Z,67.39
2023-05-09T04:12:27.988Z,67.46
2023-05-09T04:14:56.681Z,67.30
2023-05-09T04:17:24.839Z,67.19
2023-05-09T04:19:53.406Z,67.18
2023-05-09T04:22:21.661Z,67.20
2023-05-09T04:24:50.094Z,67.15
2023-05-09T04:27:18.271Z,67.03
2023-05-09T04:29:46.448Z,66.94
2023-05-09T04:32:14.593Z,66.86
2023-05-09T04:34:42.872Z,66.98
2023-05-09T04:37:11.523Z,66.94
2023-05-09T04:39:40.058Z,66.86
2023-05-09T04:42:07.986Z,66.70
2023-05-09T04:44:36.298Z,66.80
2023-05-09T04:47:04.431Z,66.72
2023-05-09T04:49:33.107Z,66.82
2023-05-09T04:52:01.673Z,66.68
2023-05-09T04:54:29.793Z,66.62
2023-05-09T04:57:09.843Z,66.60
2023-05-09T04:59:46.173Z,66.47
2023-05-09T05:02:14.259Z,66.58
2023-05-09T05:04:43.336Z,66.50
2023-05-09T05:07:11.557Z,66.25
2023-05-09T05:09:39.752Z,66.18
2023-05-09T05:12:09.570Z,66.05
2023-05-09T05:14:38.209Z,66.15
2023-05-09T05:17:06.346Z,66.10
2023-05-09T05:19:34.530Z,66.10
2023-05-09T05:22:02.700Z,66.13
2023-05-09T05:24:30.976Z,66.15
2023-05-09T05:26:59.024Z,66.15
2023-05-09T05:29:27.320Z,66.11
2023-05-09T05:31:55.672Z,66.26
2023-05-09T05:34:24.132Z,66.27
2023-05-09T05:36:52.152Z,66.34
2023-05-09T05:39:20.569Z,66.44
2023-05-09T05:41:48.591Z,66.34
2023-05-09T05:44:16.868Z,66.32
2023-05-09T05:46:44.926Z,66.27
2023-05-09T05:49:12.897Z,66.28
2023-05-09T05:51:41.389Z,66.41
2023-05-09T05:54:09.487Z,66.32
2023-05-09T05:56:37.659Z,66.42
2023-05-09T05:59:07.672Z,66.30
2023-05-09T06:01:35.808Z,66.34
2023-05-09T06:04:04.182Z,66.39
2023-05-09T06:06:32.801Z,66.49
2023-05-09T06:09:01.183Z,66.43
2023-05-09T06:11:29.239Z,66.33
2023-05-09T06:13:57.393Z,66.13
2023-05-09T06:16:25.558Z,65.94
2023-05-09T06:18:55.919Z,65.87
2023-05-09T06:21:24.447Z,65.68
2023-05-09T06:26:24.576Z,65.42
2023-05-09T06:28:53.147Z,65.30
2023-05-09T06:31:22.036Z,65.26
2023-05-09T06:33:51.777Z,65.25
2023-05-09T06:36:19.995Z,65.27
2023-05-09T06:38:48.308Z,65.12
2023-05-09T06:41:16.627Z,65.21
2023-05-09T06:43:44.753Z,65.15
2023-05-09T06:46:12.860Z,64.94
2023-05-09T06:48:41.144Z,64.89
2023-05-09T06:51:09.273Z,64.64
2023-05-09T06:53:38.133Z,64.57
2023-05-09T06:56:06.413Z,64.50
2023-05-09T06:58:34.586Z,64.17
2023-05-09T07:01:03.048Z,63.85
2023-05-09T07:03:33.079Z,63.63
2023-05-09T07:06:01.156Z,63.42
2023-05-09T07:08:29.745Z,63.05
2023-05-09T07:10:58.362Z,62.86
2023-05-09T07:13:27.458Z,62.55
2023-05-09T07:15:55.526Z,62.41
2023-05-09T07:18:23.985Z,62.19
2023-05-09T07:20:52.253Z,62.00
2023-05-09T07:23:20.466Z,61.93
2023-05-09T07:25:50.209Z,61.48
2023-05-09T07:28:18.299Z,61.22
2023-05-09T07:30:46.523Z,61.02
2023-05-09T07:33:14.619Z,60.74
2023-05-09T07:35:43.008Z,60.55
2023-05-09T07:38:11.129Z,60.27
2023-05-09T07:40:39.352Z,60.09
2023-05-09T07:43:07.748Z,60.06
2023-05-09T07:45:35.917Z,59.93
2023-05-09T07:48:04.905Z,59.78
2023-05-09T07:50:33.648Z,59.48
2023-05-09T07:53:01.744Z,59.42
2023-05-09T07:55:30.005Z,59.12
2023-05-09T07:57:58.026Z,58.98
2023-05-09T08:00:26.738Z,58.92
2023-05-09T08:02:55.498Z,58.80
2023-05-09T08:05:23.752Z,58.68
2023-05-09T08:07:51.819Z,58.50
2023-05-09T08:10:20.005Z,58.00
2023-05-09T08:12:48.099Z,57.54
2023-05-09T08:15:16.399Z,57.31
2023-05-09T08:17:45.361Z,56.85
2023-05-09T08:20:13.451Z,56.74
2023-05-09T08:22:41.651Z,56.72
2023-05-09T08:25:10.062Z,56.68
2023-05-09T08:27:38.905Z,56.56
2023-05-09T08:30:08.208Z,56.67
2023-05-09T08:32:37.081Z,56.75
2023-05-09T08:35:06.350Z,57.01
2023-05-09T08:37:35.492Z,56.79
2023-05-09T08:40:05.396Z,56.71
2023-05-09T08:42:36.371Z,56.77
2023-05-09T08:45:10.327Z,57.03
2023-05-09T08:47:39.199Z,56.80
2023-05-09T08:50:09.120Z,57.00
2023-05-09T08:52:38.005Z,56.94
2023-05-09T08:55:06.336Z,57.29
2023-05-09T08:57:34.894Z,57.18
2023-05-09T09:00:05.111Z,57.12
2023-05-09T09:02:35.563Z,57.03
2023-05-09T09:05:05.201Z,57.08
2023-05-09T09:07:36.738Z,57.24
2023-05-09T09:10:06.243Z,57.43
2023-05-09T09:12:34.825Z,57.54
2023-05-09T09:15:08.695Z,57.91
2023-05-09T09:17:42.439Z,58.03
2023-05-09T09:20:13.712Z,58.07
2023-05-09T09:22:44.108Z,57.65
2023-05-09T09:25:12.256Z,57.66
2023-05-09T09:27:40.462Z,57.41
2023-05-09T09:30:11.508Z,57.43
2023-05-09T09:32:40.285Z,57.42
2023-05-09T09:35:11.656Z,57.24
2023-05-09T09:37:40.705Z,57.23
2023-05-09T09:40:10.190Z,57.41
2023-05-09T09:42:47.423Z,57.28
2023-05-09T09:45:16.862Z,57.23
2023-05-09T09:47:46.992Z,57.07
2023-05-09T09:50:18.944Z,57.10
2023-05-09T09:52:50.961Z,57.10
2023-05-09T09:55:21.234Z,56.96
2023-05-09T09:57:49.286Z,57.10
2023-05-09T10:00:30.143Z,57.15
2023-05-09T10:02:59.827Z,57.34
2023-05-09T10:05:30.535Z,57.36
2023-05-09T10:08:04.442Z,57.29
2023-05-09T10:10:35.058Z,57.45
2023-05-09T10:13:07.766Z,57.59
2023-05-09T10:15:45.510Z,57.90
2023-05-09T10:18:27.440Z,57.91
2023-05-09T10:20:57.311Z,57.66
2023-05-09T10:23:25.780Z,57.77
2023-05-09T10:26:14.342Z,57.73
2023-05-09T10:28:46.017Z,57.83
2023-05-09T10:31:28.461Z,57.48
2023-05-09T10:34:01.367Z,57.60
2023-05-09T10:36:29.891Z,57.67
2023-05-09T10:38:58.542Z,57.79
2023-05-09T10:41:27.541Z,57.88
2023-05-09T10:43:59.142Z,57.68
2023-05-09T10:46:28.349Z,57.55
2023-05-09T10:48:57.538Z,57.69
2023-05-09T10:51:26.197Z,57.80
2023-05-09T10:53:54.860Z,57.61
2023-05-09T10:56:30.216Z,58.09
2023-05-09T10:59:02.022Z,58.34
2023-05-09T11:01:38.227Z,58.70
2023-05-09T11:04:14.664Z,59.31
2023-05-09T11:06:50.191Z,59.40
2023-05-09T11:09:38.065Z,59.63
2023-05-09T11:12:13.005Z,59.89
2023-05-09T11:14:46.887Z,60.19
2023-05-09T11:17:20.995Z,60.48
2023-05-09T11:19:49.182Z,60.92
2023-05-09T11:22:28.854Z,61.47
2023-05-09T11:25:14.240Z,61.46
2023-05-09T11:27:50.354Z,61.60
2023-05-09T11:30:20.821Z,61.46
2023-05-09T11:32:54.775Z,61.54
2023-05-09T11:35:24.342Z,61.75
2023-05-09T11:38:03.866Z,61.95
2023-05-09T11:40:36.961Z,61.83
2023-05-09T11:43:08.002Z,61.63
2023-05-09T11:45:36.095Z,61.76
2023-05-09T11:48:09.494Z,61.72
2023-05-09T11:50:37.716Z,61.45
2023-05-09T11:53:05.857Z,61.06
2023-05-09T11:55:38.123Z,60.84
2023-05-09T11:58:07.516Z,60.85
2023-05-09T12:00:35.619Z,60.60
2023-05-09T12:03:06.322Z,60.31
2023-05-09T12:05:35.695Z,60.43
2023-05-09T12:08:04.219Z,60.24
2023-05-09T12:10:38.588Z,60.18
2023-05-09T12:13:06.887Z,59.73
2023-05-09T12:15:39.053Z,59.53
2023-05-09T12:18:08.537Z,59.47
2023-05-09T12:20:48.656Z,59.11
2023-05-09T12:23:17.224Z,58.91
2023-05-09T12:26:03.237Z,58.64
2023-05-09T12:28:33.171Z,58.16
2023-05-09T12:31:01.904Z,58.18
2023-05-09T12:33:31.617Z,58.54
2023-05-09T12:36:02.661Z,58.86
2023-05-09T12:38:30.914Z,58.70
2023-05-09T12:41:30.963Z,58.62
2023-05-09T12:44:05.409Z,58.70
2023-05-09T12:46:35.646Z,58.35
2023-05-09T12:49:23.502Z,58.05
2023-05-09T12:51:52.170Z,57.50
2023-05-09T12:54:26.466Z,57.44
2023-05-09T12:56:56.271Z,57.08
2023-05-09T12:59:28.751Z,56.71
2023-05-09T13:01:59.158Z,56.34
2023-05-09T13:04:28.890Z,56.23
2023-05-09T13:06:58.773Z,55.52
2023-05-09T13:09:27.923Z,54.89
2023-05-09T13:11:56.154Z,54.56
2023-05-09T13:14:25.676Z,54.40
2023-05-09T13:16:54.742Z,53.99
2023-05-09T13:19:24.106Z,53.52
2023-05-09T13:21:52.708Z,53.67
2023-05-09T13:24:21.071Z,54.09
2023-05-09T13:26:49.854Z,53.71
2023-05-09T13:29:18.000Z,53.58
2023-05-09T13:31:46.648Z,53.85
2023-05-09T13:34:14.661Z,53.87
2023-05-09T13:36:42.885Z,54.08
2023-05-09T13:39:11.082Z,54.22
2023-05-09T13:41:39.276Z,54.38
2023-05-09T13:44:08.560Z,54.64
2023-05-09T13:46:37.348Z,54.94
2023-05-09T13:49:05.991Z,54.98
2023-05-09T13:51:34.728Z,54.92
2023-05-09T13:54:04.149Z,54.94
2023-05-09T13:56:32.296Z,55.33
2023-05-09T13:59:00.483Z,55.52
2023-05-09T14:01:29.258Z,55.51
2023-05-09T14:03:57.446Z,55.29
2023-05-09T14:06:25.696Z,55.07
2023-05-09T14:08:53.706Z,54.91
2023-05-09T14:11:21.810Z,55.43
2023-05-09T14:13:50.084Z,55.95
2023-05-09T14:16:18.937Z,55.79
2023-05-09T14:18:47.664Z,55.92
2023-05-09T14:21:16.305Z,56.09
2023-05-09T14:23:45.033Z,56.27
2023-05-09T14:26:13.215Z,56.66
2023-05-09T14:28:41.480Z,56.88
2023-05-09T14:31:10.859Z,57.00
2023-05-09T14:33:39.444Z,57.28
2023-05-09T14:36:07.669Z,57.22
2023-05-09T14:38:35.796Z,57.60
2023-05-09T14:41:04.456Z,57.86
2023-05-09T14:43:32.784Z,57.75
2023-05-09T14:46:00.820Z,58.14
2023-05-09T14:48:29.673Z,58.63
2023-05-09T14:50:58.714Z,58.82
2023-05-09T14:53:27.693Z,58.88
2023-05-09T14:55:56.419Z,58.55
2023-05-09T14:58:24.668Z,58.63
2023-05-09T15:00:53.563Z,58.60
2023-05-09T15:03:21.982Z,58.50
2023-05-09T15:05:50.744Z,58.65
2023-05-09T15:08:19.246Z,58.73
2023-05-09T15:10:47.585Z,59.04
2023-05-09T15:13:16.144Z,59.28
2023-05-09T15:15:44.367Z,59.48
2023-05-09T15:18:12.976Z,59.57
2023-05-09T15:20:41.670Z,59.65
2023-05-09T15:23:12.181Z,59.65
2023-05-09T15:25:44.029Z,59.78
2023-05-09T15:28:13.034Z,59.66
2023-05-09T15:30:41.815Z,59.69
2023-05-09T15:33:10.175Z,59.67
2023-05-09T15:35:38.956Z,59.42
2023-05-09T15:38:07.607Z,59.58
2023-05-09T15:40:35.694Z,59.70
2023-05-09T15:43:05.354Z,59.76
2023-05-09T15:45:34.704Z,59.93
2023-05-09T15:48:03.236Z,59.87
2023-05-09T15:50:33.928Z,59.65
2023-05-09T15:53:02.154Z,59.66
2023-05-09T15:55:33.551Z,59.80
2023-05-09T15:58:01.774Z,59.95
2023-05-09T16:00:30.550Z,59.97
2023-05-09T16:02:59.713Z,60.09
2023-05-09T16:05:28.151Z,59.92
2023-05-09T16:07:56.237Z,60.13
2023-05-09T16:10:24.972Z,60.22
2023-05-09T16:12:53.181Z,60.83
2023-05-09T16:15:21.750Z,60.78
2023-05-09T16:17:49.890Z,61.12
2023-05-09T16:20:18.065Z,60.95
2023-05-09T16:22:46.466Z,61.11
2023-05-09T16:25:15.062Z,60.83
2023-05-09T16:27:43.658Z,60.89
2023-05-09T16:30:13.437Z,60.97
2023-05-09T16:32:42.100Z,61.34
2023-05-09T16:35:11.012Z,61.55
2023-05-09T16:37:39.591Z,61.28
2023-05-09T16:40:08.739Z,61.46
2023-05-09T16:42:36.988Z,61.34
2023-05-09T16:45:07.336Z,61.43
2023-05-09T16:47:35.648Z,61.34
2023-05-09T16:50:04.077Z,61.42
2023-05-09T16:52:32.172Z,61.12
2023-05-09T16:55:00.238Z,61.04
2023-05-09T16:57:28.596Z,61.66
2023-05-09T16:59:56.649Z,61.63
2023-05-09T17:02:24.857Z,61.73
2023-05-09T17:04:54.135Z,61.92
2023-05-09T17:07:22.424Z,61.78
2023-05-09T17:09:50.599Z,61.98
2023-05-09T17:12:19.237Z,62.09
2023-05-09T17:14:48.398Z,61.97
2023-05-09T17:17:16.555Z,61.95
2023-05-09T17:19:44.761Z,61.85
2023-05-09T17:22:12.935Z,62.40
2023-05-09T17:24:41.218Z,62.51
2023-05-09T17:27:09.474Z,62.64
2023-05-09T17:29:37.555Z,62.82
2023-05-09T17:32:05.883Z,63.04
2023-05-09T17:34:34.328Z,63.17
2023-05-09T17:37:02.643Z,63.13
2023-05-09T17:39:31.888Z,63.43
2023-05-09T17:41:59.939Z,63.38
2023-05-09T17:44:28.656Z,63.48
2023-05-09T17:47:00.593Z,63.66
2023-05-09T17:49:29.294Z,63.72
2023-05-09T17:51:57.460Z,63.96
2023-05-09T17:54:26.597Z,64.30
2023-05-09T17:56:55.459Z,64.22
2023-05-09T17:59:23.926Z,64.32
2023-05-09T18:01:52.257Z,64.61
2023-05-09T18:04:21.229Z,64.75
2023-05-09T18:06:49.911Z,64.65
2023-05-09T18:09:18.026Z,64.98
2023-05-09T18:11:46.159Z,65.01
2023-05-09T18:14:14.625Z,65.16
2023-05-09T18:16:43.770Z,65.32
2023-05-09T18:19:11.904Z,65.48
2023-05-09T18:21:40.060Z,65.53
2023-05-09T18:24:08.355Z,65.77
2023-05-09T18:26:36.569Z,65.78
2023-05-09T18:29:04.727Z,65.87
2023-05-09T18:31:33.373Z,65.97
2023-05-09T18:34:01.601Z,65.98
2023-05-09T18:36:29.635Z,65.87
2023-05-09T18:38:58.275Z,65.69
2023-05-09T18:41:29.362Z,65.97
2023-05-09T18:43:58.147Z,66.09
2023-05-09T18:46:26.326Z,65.96
2023-05-09T18:48:54.513Z,65.98
2023-05-09T18:51:23.059Z,66.07
2023-05-09T18:53:51.520Z,66.05
2023-05-09T18:56:19.861Z,66.17
2023-05-09T18:58:49.208Z,66.10
2023-05-09T19:01:17.889Z,66.07
2023-05-09T19:03:46.160Z,65.96
2023-05-09T19:06:15.469Z,65.99
2023-05-09T19:08:43.796Z,66.00
2023-05-09T19:11:11.812Z,65.93
2023-05-09T19:13:40.536Z,66.15
2023-05-09T19:16:09.080Z,66.25
2023-05-09T19:18:37.283Z,66.29
2023-05-09T19:21:05.621Z,66.30
2023-05-09T19:23:34.379Z,66.31
2023-05-09T19:26:02.799Z,66.27
2023-05-09T19:28:31.018Z,66.34
2023-05-09T19:30:59.104Z,66.58
2023-05-09T19:33:27.264Z,66.55
2023-05-09T19:35:55.781Z,66.55
2023-05-09T19:38:24.424Z,66.58
2023-05-09T19:40:52.811Z,66.67
2023-05-09T19:43:20.975Z,66.72
2023-05-09T19:45:49.004Z,66.73
2023-05-09T19:48:17.820Z,66.71
2023-05-09T19:50:46.260Z,66.76
2023-05-09T19:53:14.332Z,66.89
2023-05-09T19:55:43.010Z,66.92
2023-05-09T19:58:11.647Z,66.87
2023-05-09T20:00:40.608Z,67.00
2023-05-09T20:03:09.418Z,67.04
2023-05-09T20:05:38.925Z,67.00
2023-05-09T20:08:07.332Z,67.03
2023-05-09T20:10:35.486Z,67.27
2023-05-09T20:13:03.606Z,67.34
2023-05-09T20:15:32.230Z,67.26
2023-05-09T20:18:00.312Z,67.34
2023-05-09T20:20:30.164Z,67.33
2023-05-09T20:22:58.301Z,67.44
2023-05-09T20:25:26.424Z,67.40
2023-05-09T20:27:54.756Z,67.36
2023-05-09T20:30:23.031Z,67.33
2023-05-09T20:32:51.232Z,67.24
2023-05-09T20:35:19.431Z,67.31
2023-05-09T20:37:47.673Z,67.43
2023-05-09T20:40:15.978Z,67.26
2023-05-09T20:42:44.459Z,67.01
2023-05-09T20:45:12.979Z,67.23
2023-05-09T20:47:41.082Z,67.21
2023-05-09T20:50:10.784Z,67.16
2023-05-09T20:52:38.879Z,67.25
2023-05-09T20:55:07.221Z,67.46
2023-05-09T20:57:36.037Z,67.43
2023-05-09T21:00:04.480Z,67.55
2023-05-09T21:02:32.630Z,67.71
2023-05-09T21:05:03.204Z,67.75
2023-05-09T21:07:31.287Z,67.57
2023-05-09T21:09:59.841Z,67.58
2023-05-09T21:12:28.378Z,67.72
2023-05-09T21:14:56.706Z,67.71
2023-05-09T21:17:24.787Z,67.73
2023-05-09T21:19:52.991Z,67.57
2023-05-09T21:22:21.253Z,67.65
2023-05-09T21:24:49.345Z,67.67
2023-05-09T21:27:17.554Z,67.86
2023-05-09T21:29:45.657Z,67.91
2023-05-09T21:32:13.974Z,67.96
2023-05-09T21:34:42.785Z,67.97
2023-05-09T21:37:10.890Z,68.09
2023-05-09T21:39:39.432Z,68.16
2023-05-09T21:42:08.057Z,68.21
2023-05-09T21:44:36.251Z,68.34
2023-05-09T21:47:05.040Z,68.24
2023-05-09T21:49:33.607Z,68.28
2023-05-09T21:52:01.737Z,68.25
2023-05-09T21:54:29.977Z,68.18
2023-05-09T21:56:58.183Z,68.22
2023-05-09T21:59:27.170Z,68.15
2023-05-09T22:01:55.212Z,68.07
2023-05-09T22:04:23.847Z,68.03
2023-05-09T22:06:51.900Z,68.05
2023-05-09T22:09:19.975Z,68.03
2023-05-09T22:11:48.150Z,67.91
2023-05-09T22:14:16.240Z,67.92
2023-05-09T22:16:44.350Z,67.93
2023-05-09T22:19:12.825Z,67.81
2023-05-09T22:21:40.948Z,67.94
2023-05-09T22:24:09.054Z,67.88
2023-05-09T22:26:37.433Z,67.95
2023-05-09T22:29:05.494Z,67.91
2023-05-09T22:31:33.523Z,67.88
2023-05-09T22:34:02.135Z,67.84
2023-05-09T22:36:30.208Z,67.92
2023-05-09T22:38:58.318Z,67.99
2023-05-09T22:41:26.399Z,67.83
2023-05-09T22:43:54.921Z,67.82
2023-05-09T22:46:23.081Z,67.90
2023-05-09T22:48:51.659Z,67.91
2023-05-09T22:51:19.821Z,67.97
2023-05-09T22:53:48.014Z,67.93
2023-05-09T22:56:16.296Z,67.90
2023-05-09T22:58:44.453Z,67.85
2023-05-09T23:01:12.477Z,67.77
2023-05-09T23:03:40.658Z,67.72
2023-05-09T23:06:08.753Z,67.63
2023-05-09T23:08:37.040Z,67.64
2023-05-09T23:11:05.269Z,67.54
2023-05-09T23:13:33.298Z,67.49
2023-05-09T23:16:01.402Z,67.44
2023-05-09T23:18:30.354Z,67.45
2023-05-09T23:20:58.488Z,67.34
2023-05-09T23:23:27.761Z,67.34
2023-05-09T23:25:56.018Z,67.21
2023-05-09T23:28:24.518Z,67.26
2023-05-09T23:30:55.765Z,67.19
2023-05-09T23:33:24.041Z,67.24
2023-05-09T23:35:52.335Z,67.06
2023-05-09T23:38:20.387Z,67.00
2023-05-09T23:40:48.457Z,66.99
2023-05-09T23:43:16.659Z,67.03
2023-05-09T23:45:44.857Z,66.94
2023-05-09T23:48:13.146Z,67.04
2023-05-09T23:50:41.691Z,66.91
2023-05-09T23:53:09.836Z,66.99
2023-05-09T23:55:38.082Z,67.03
2023-05-09T23:58:06.191Z,66.92
